sensor_id;sensor_type;location;lat;lon;timestamp;P1;durP1;ratioP1;P2;durP2;ratioP2
19599;SDS011;9947;57.722;12.012;2022-09-04T00:00:52;3.83;;;3.10;;
19599;SDS011;9947;57.722;12.012;2022-09-04T00:03:30;3.87;;;3.30;;
19599;SDS011;9947;57.722;12.012;2022-09-04T00:06:06;4.93;;;2.73;;
19599;SDS011;9947;57.722;12.012;2022-09-04T00:08:44;4.00;;;2.57;;
19599;SDS011;9947;57.722;12.012;2022-09-04T00:11:24;3.67;;;2.80;;
19599;SDS011;9947;57.722;12.012;2022-09-04T00:13:59;4.50;;;2.90;;
19599;SDS011;9947;57.722;12.012;2022-09-04T00:16:29;2.97;;;2.77;;
19599;SDS011;9947;57.722;12.012;2022-09-04T00:19:06;2.67;;;2.47;;
19599;SDS011;9947;57.722;12.012;2022-09-04T00:21:40;2.73;;;2.47;;
19599;SDS011;9947;57.722;12.012;2022-09-04T00:24:16;4.23;;;3.10;;
19599;SDS011;9947;57.722;12.012;2022-09-04T00:26:48;2.90;;;2.50;;
19599;SDS011;9947;57.722;12.012;2022-09-04T00:29:23;3.27;;;2.73;;
19599;SDS011;9947;57.722;12.012;2022-09-04T00:31:59;5.70;;;2.50;;
19599;SDS011;9947;57.722;12.012;2022-09-04T00:34:40;3.67;;;2.40;;
19599;SDS011;9947;57.722;12.012;2022-09-04T00:37:19;4.93;;;2.60;;
19599;SDS011;9947;57.722;12.012;2022-09-04T00:39:54;2.87;;;2.50;;
19599;SDS011;9947;57.722;12.012;2022-09-04T00:42:30;2.50;;;2.30;;
19599;SDS011;9947;57.722;12.012;2022-09-04T00:45:15;3.77;;;3.00;;
19599;SDS011;9947;57.722;12.012;2022-09-04T00:51:08;2.67;;;2.47;;
19599;SDS011;9947;57.722;12.012;2022-09-04T00:56:43;4.97;;;3.03;;
19599;SDS011;9947;57.722;12.012;2022-09-04T00:59:45;3.20;;;2.43;;
19599;SDS011;9947;57.722;12.012;2022-09-04T01:02:30;3.50;;;2.50;;
19599;SDS011;9947;57.722;12.012;2022-09-04T01:05:08;2.87;;;2.40;;
19599;SDS011;9947;57.722;12.012;2022-09-04T01:07:48;2.77;;;2.50;;
19599;SDS011;9947;57.722;12.012;2022-09-04T01:10:29;3.07;;;2.40;;
19599;SDS011;9947;57.722;12.012;2022-09-04T01:13:08;3.03;;;2.20;;
19599;SDS011;9947;57.722;12.012;2022-09-04T01:15:39;4.27;;;2.40;;
19599;SDS011;9947;57.722;12.012;2022-09-04T01:18:11;5.10;;;2.70;;
19599;SDS011;9947;57.722;12.012;2022-09-04T01:20:46;2.83;;;2.57;;
19599;SDS011;9947;57.722;12.012;2022-09-04T01:26:29;1.87;;;1.77;;
19599;SDS011;9947;57.722;12.012;2022-09-04T01:29:06;2.00;;;1.90;;
19599;SDS011;9947;57.722;12.012;2022-09-04T01:31:43;2.43;;;2.00;;
19599;SDS011;9947;57.722;12.012;2022-09-04T01:34:23;2.00;;;1.90;;
19599;SDS011;9947;57.722;12.012;2022-09-04T01:37:02;4.30;;;2.03;;
19599;SDS011;9947;57.722;12.012;2022-09-04T01:39:37;2.20;;;2.00;;
19599;SDS011;9947;57.722;12.012;2022-09-04T01:42:11;4.43;;;1.80;;
19599;SDS011;9947;57.722;12.012;2022-09-04T01:44:43;3.77;;;2.03;;
19599;SDS011;9947;57.722;12.012;2022-09-04T01:47:14;5.53;;;2.20;;
19599;SDS011;9947;57.722;12.012;2022-09-04T01:49:46;1.80;;;1.70;;
19599;SDS011;9947;57.722;12.012;2022-09-04T01:52:26;1.73;;;1.63;;
19599;SDS011;9947;57.722;12.012;2022-09-04T01:55:05;1.93;;;1.73;;
19599;SDS011;9947;57.722;12.012;2022-09-04T01:57:47;1.80;;;1.70;;
19599;SDS011;9947;57.722;12.012;2022-09-04T02:00:23;2.30;;;2.10;;
19599;SDS011;9947;57.722;12.012;2022-09-04T02:02:54;2.03;;;1.83;;
19599;SDS011;9947;57.722;12.012;2022-09-04T02:05:28;2.23;;;2.07;;
19599;SDS011;9947;57.722;12.012;2022-09-04T02:08:03;1.70;;;1.53;;
19599;SDS011;9947;57.722;12.012;2022-09-04T02:10:48;1.87;;;1.77;;
19599;SDS011;9947;57.722;12.012;2022-09-04T02:13:22;2.00;;;1.60;;
19599;SDS011;9947;57.722;12.012;2022-09-04T02:16:06;1.77;;;1.67;;
19599;SDS011;9947;57.722;12.012;2022-09-04T02:18:43;1.93;;;1.57;;
19599;SDS011;9947;57.722;12.012;2022-09-04T02:21:23;2.00;;;1.90;;
19599;SDS011;9947;57.722;12.012;2022-09-04T02:23:59;1.90;;;1.80;;
19599;SDS011;9947;57.722;12.012;2022-09-04T02:26:36;2.37;;;2.00;;
19599;SDS011;9947;57.722;12.012;2022-09-04T02:29:10;2.00;;;1.80;;
19599;SDS011;9947;57.722;12.012;2022-09-04T02:31:47;1.90;;;1.80;;
19599;SDS011;9947;57.722;12.012;2022-09-04T02:34:24;1.83;;;1.70;;
19599;SDS011;9947;57.722;12.012;2022-09-04T02:37:02;1.77;;;1.67;;
19599;SDS011;9947;57.722;12.012;2022-09-04T02:39:39;3.10;;;1.90;;
19599;SDS011;9947;57.722;12.012;2022-09-04T02:42:16;1.87;;;1.77;;
19599;SDS011;9947;57.722;12.012;2022-09-04T02:44:54;1.83;;;1.70;;
19599;SDS011;9947;57.722;12.012;2022-09-04T02:47:35;2.73;;;1.80;;
19599;SDS011;9947;57.722;12.012;2022-09-04T02:50:13;2.67;;;1.77;;
19599;SDS011;9947;57.722;12.012;2022-09-04T02:52:55;2.00;;;1.80;;
19599;SDS011;9947;57.722;12.012;2022-09-04T02:55:41;2.87;;;1.77;;
19599;SDS011;9947;57.722;12.012;2022-09-04T02:58:35;1.80;;;1.70;;
19599;SDS011;9947;57.722;12.012;2022-09-04T03:01:15;1.90;;;1.80;;
19599;SDS011;9947;57.722;12.012;2022-09-04T03:03:51;1.97;;;1.77;;
19599;SDS011;9947;57.722;12.012;2022-09-04T03:06:24;1.80;;;1.70;;
19599;SDS011;9947;57.722;12.012;2022-09-04T03:09:07;1.90;;;1.80;;
19599;SDS011;9947;57.722;12.012;2022-09-04T03:11:41;1.87;;;1.77;;
19599;SDS011;9947;57.722;12.012;2022-09-04T03:14:16;2.97;;;1.80;;
19599;SDS011;9947;57.722;12.012;2022-09-04T03:16:53;1.93;;;1.83;;
19599;SDS011;9947;57.722;12.012;2022-09-04T03:19:26;2.00;;;1.90;;
19599;SDS011;9947;57.722;12.012;2022-09-04T03:22:03;2.87;;;1.83;;
19599;SDS011;9947;57.722;12.012;2022-09-04T03:24:37;2.30;;;2.10;;
19599;SDS011;9947;57.722;12.012;2022-09-04T03:27:23;3.80;;;1.80;;
19599;SDS011;9947;57.722;12.012;2022-09-04T03:29:52;3.33;;;2.00;;
19599;SDS011;9947;57.722;12.012;2022-09-04T03:32:31;2.00;;;1.80;;
19599;SDS011;9947;57.722;12.012;2022-09-04T03:35:06;3.40;;;1.80;;
19599;SDS011;9947;57.722;12.012;2022-09-04T03:37:47;3.33;;;1.90;;
19599;SDS011;9947;57.722;12.012;2022-09-04T03:40:28;1.90;;;1.80;;
19599;SDS011;9947;57.722;12.012;2022-09-04T03:46:10;2.60;;;2.10;;
19599;SDS011;9947;57.722;12.012;2022-09-04T03:48:53;2.33;;;1.87;;
19599;SDS011;9947;57.722;12.012;2022-09-04T03:51:36;2.83;;;2.03;;
19599;SDS011;9947;57.722;12.012;2022-09-04T03:54:10;2.93;;;2.03;;
19599;SDS011;9947;57.722;12.012;2022-09-04T03:56:55;2.30;;;2.10;;
19599;SDS011;9947;57.722;12.012;2022-09-04T03:59:35;2.20;;;2.00;;
19599;SDS011;9947;57.722;12.012;2022-09-04T04:02:16;2.43;;;2.23;;
19599;SDS011;9947;57.722;12.012;2022-09-04T04:05:00;3.77;;;1.90;;
19599;SDS011;9947;57.722;12.012;2022-09-04T04:07:40;2.50;;;2.30;;
19599;SDS011;9947;57.722;12.012;2022-09-04T04:10:15;2.27;;;2.10;;
19599;SDS011;9947;57.722;12.012;2022-09-04T04:13:02;2.03;;;1.93;;
19599;SDS011;9947;57.722;12.012;2022-09-04T04:19:07;2.57;;;1.83;;
19599;SDS011;9947;57.722;12.012;2022-09-04T04:21:49;2.30;;;2.10;;
19599;SDS011;9947;57.722;12.012;2022-09-04T04:24:33;3.10;;;2.20;;
19599;SDS011;9947;57.722;12.012;2022-09-04T04:27:22;3.30;;;2.03;;
19599;SDS011;9947;57.722;12.012;2022-09-04T04:30:03;2.90;;;2.00;;
19599;SDS011;9947;57.722;12.012;2022-09-04T04:32:36;2.37;;;1.93;;
19599;SDS011;9947;57.722;12.012;2022-09-04T04:35:28;2.97;;;2.50;;
19599;SDS011;9947;57.722;12.012;2022-09-04T04:41:21;2.17;;;2.00;;
19599;SDS011;9947;57.722;12.012;2022-09-04T04:44:19;2.50;;;2.03;;
19599;SDS011;9947;57.722;12.012;2022-09-04T04:47:20;2.53;;;2.30;;
19599;SDS011;9947;57.722;12.012;2022-09-04T04:50:07;2.43;;;2.23;;
19599;SDS011;9947;57.722;12.012;2022-09-04T04:52:45;4.30;;;2.30;;
19599;SDS011;9947;57.722;12.012;2022-09-04T04:55:21;2.20;;;2.00;;
19599;SDS011;9947;57.722;12.012;2022-09-04T05:00:56;4.40;;;2.20;;
19599;SDS011;9947;57.722;12.012;2022-09-04T05:03:36;2.10;;;2.00;;
19599;SDS011;9947;57.722;12.012;2022-09-04T05:06:15;2.37;;;1.90;;
19599;SDS011;9947;57.722;12.012;2022-09-04T05:08:54;2.43;;;2.00;;
19599;SDS011;9947;57.722;12.012;2022-09-04T05:11:48;3.13;;;2.03;;
19599;SDS011;9947;57.722;12.012;2022-09-04T05:14:32;2.23;;;2.03;;
19599;SDS011;9947;57.722;12.012;2022-09-04T05:17:10;3.73;;;1.97;;
19599;SDS011;9947;57.722;12.012;2022-09-04T05:20:11;2.10;;;2.00;;
19599;SDS011;9947;57.722;12.012;2022-09-04T05:22:55;2.70;;;2.10;;
19599;SDS011;9947;57.722;12.012;2022-09-04T05:25:39;1.90;;;1.80;;
19599;SDS011;9947;57.722;12.012;2022-09-04T05:28:18;2.77;;;1.90;;
19599;SDS011;9947;57.722;12.012;2022-09-04T05:31:06;2.17;;;2.07;;
19599;SDS011;9947;57.722;12.012;2022-09-04T05:33:48;5.23;;;2.17;;
19599;SDS011;9947;57.722;12.012;2022-09-04T05:36:23;2.30;;;2.10;;
19599;SDS011;9947;57.722;12.012;2022-09-04T05:39:03;4.00;;;2.10;;
19599;SDS011;9947;57.722;12.012;2022-09-04T05:41:38;6.00;;;2.00;;
19599;SDS011;9947;57.722;12.012;2022-09-04T05:44:36;2.80;;;2.00;;
19599;SDS011;9947;57.722;12.012;2022-09-04T05:47:16;2.00;;;1.63;;
19599;SDS011;9947;57.722;12.012;2022-09-04T05:49:57;2.23;;;1.90;;
19599;SDS011;9947;57.722;12.012;2022-09-04T05:52:55;2.20;;;1.97;;
19599;SDS011;9947;57.722;12.012;2022-09-04T05:55:46;3.93;;;2.13;;
19599;SDS011;9947;57.722;12.012;2022-09-04T05:58:33;3.67;;;1.93;;
19599;SDS011;9947;57.722;12.012;2022-09-04T06:01:16;3.13;;;2.03;;
19599;SDS011;9947;57.722;12.012;2022-09-04T06:03:57;1.93;;;1.80;;
19599;SDS011;9947;57.722;12.012;2022-09-04T06:06:42;1.87;;;1.77;;
19599;SDS011;9947;57.722;12.012;2022-09-04T06:12:12;2.03;;;1.83;;
19599;SDS011;9947;57.722;12.012;2022-09-04T06:14:56;2.60;;;1.60;;
19599;SDS011;9947;57.722;12.012;2022-09-04T06:17:49;2.80;;;1.80;;
19599;SDS011;9947;57.722;12.012;2022-09-04T06:20:31;1.93;;;1.60;;
19599;SDS011;9947;57.722;12.012;2022-09-04T06:23:08;1.87;;;1.60;;
19599;SDS011;9947;57.722;12.012;2022-09-04T06:26:05;3.47;;;2.97;;
19599;SDS011;9947;57.722;12.012;2022-09-04T06:29:00;1.70;;;1.60;;
19599;SDS011;9947;57.722;12.012;2022-09-04T06:31:42;2.07;;;1.50;;
19599;SDS011;9947;57.722;12.012;2022-09-04T06:34:27;2.57;;;1.70;;
19599;SDS011;9947;57.722;12.012;2022-09-04T06:37:10;1.60;;;1.50;;
19599;SDS011;9947;57.722;12.012;2022-09-04T06:39:50;1.53;;;1.40;;
19599;SDS011;9947;57.722;12.012;2022-09-04T06:42:27;1.53;;;1.43;;
19599;SDS011;9947;57.722;12.012;2022-09-04T06:45:06;1.60;;;1.50;;
19599;SDS011;9947;57.722;12.012;2022-09-04T06:58:54;3.13;;;1.57;;
19599;SDS011;9947;57.722;12.012;2022-09-04T07:02:22;1.50;;;1.40;;
19599;SDS011;9947;57.722;12.012;2022-09-04T07:05:33;2.10;;;1.20;;
19599;SDS011;9947;57.722;12.012;2022-09-04T07:08:10;1.40;;;1.30;;
19599;SDS011;9947;57.722;12.012;2022-09-04T07:10:45;2.30;;;1.13;;
19599;SDS011;9947;57.722;12.012;2022-09-04T07:13:21;1.43;;;1.20;;
19599;SDS011;9947;57.722;12.012;2022-09-04T07:16:10;1.30;;;1.20;;
19599;SDS011;9947;57.722;12.012;2022-09-04T07:21:47;1.00;;;1.00;;
19599;SDS011;9947;57.722;12.012;2022-09-04T07:27:35;2.87;;;1.10;;
19599;SDS011;9947;57.722;12.012;2022-09-04T07:30:14;1.20;;;1.10;;
19599;SDS011;9947;57.722;12.012;2022-09-04T07:33:05;0.90;;;0.90;;
19599;SDS011;9947;57.722;12.012;2022-09-04T07:36:56;1.70;;;1.20;;
19599;SDS011;9947;57.722;12.012;2022-09-04T07:39:13;1.30;;;1.10;;
19599;SDS011;9947;57.722;12.012;2022-09-04T07:41:54;3.33;;;1.37;;
19599;SDS011;9947;57.722;12.012;2022-09-04T07:44:46;1.40;;;1.30;;
19599;SDS011;9947;57.722;12.012;2022-09-04T07:47:25;1.97;;;1.20;;
19599;SDS011;9947;57.722;12.012;2022-09-04T07:50:05;1.20;;;1.10;;
19599;SDS011;9947;57.722;12.012;2022-09-04T07:53:00;1.90;;;1.10;;
19599;SDS011;9947;57.722;12.012;2022-09-04T07:55:46;1.23;;;1.10;;
19599;SDS011;9947;57.722;12.012;2022-09-04T08:01:35;1.30;;;1.20;;
19599;SDS011;9947;57.722;12.012;2022-09-04T08:04:21;2.03;;;1.20;;
19599;SDS011;9947;57.722;12.012;2022-09-04T08:07:03;1.07;;;1.07;;
19599;SDS011;9947;57.722;12.012;2022-09-04T08:09:38;1.07;;;1.00;;
19599;SDS011;9947;57.722;12.012;2022-09-04T08:12:35;1.90;;;1.00;;
19599;SDS011;9947;57.722;12.012;2022-09-04T08:15:17;1.30;;;0.90;;
19599;SDS011;9947;57.722;12.012;2022-09-04T08:17:52;1.50;;;0.90;;
19599;SDS011;9947;57.722;12.012;2022-09-04T08:20:41;1.00;;;1.00;;
19599;SDS011;9947;57.722;12.012;2022-09-04T08:23:21;1.17;;;1.07;;
19599;SDS011;9947;57.722;12.012;2022-09-04T08:26:03;1.03;;;0.90;;
19599;SDS011;9947;57.722;12.012;2022-09-04T08:28:45;1.17;;;1.03;;
19599;SDS011;9947;57.722;12.012;2022-09-04T08:31:28;1.10;;;1.00;;
19599;SDS011;9947;57.722;12.012;2022-09-04T08:34:26;1.03;;;0.93;;
19599;SDS011;9947;57.722;12.012;2022-09-04T08:37:31;1.27;;;1.00;;
19599;SDS011;9947;57.722;12.012;2022-09-04T08:56:41;0.90;;;0.90;;
19599;SDS011;9947;57.722;12.012;2022-09-04T09:10:46;1.03;;;1.00;;
19599;SDS011;9947;57.722;12.012;2022-09-04T09:13:58;1.43;;;1.07;;
19599;SDS011;9947;57.722;12.012;2022-09-04T09:17:04;1.30;;;1.03;;
19599;SDS011;9947;57.722;12.012;2022-09-04T09:19:43;1.17;;;1.03;;
19599;SDS011;9947;57.722;12.012;2022-09-04T09:22:21;1.20;;;1.10;;
19599;SDS011;9947;57.722;12.012;2022-09-04T09:25:15;1.00;;;1.00;;
19599;SDS011;9947;57.722;12.012;2022-09-04T09:27:51;0.80;;;0.80;;
19599;SDS011;9947;57.722;12.012;2022-09-04T09:33:59;1.20;;;1.10;;
19599;SDS011;9947;57.722;12.012;2022-09-04T09:49:29;0.90;;;0.90;;
19599;SDS011;9947;57.722;12.012;2022-09-04T09:52:27;1.50;;;1.00;;
19599;SDS011;9947;57.722;12.012;2022-09-04T10:01:40;0.90;;;0.90;;
19599;SDS011;9947;57.722;12.012;2022-09-04T10:04:28;1.17;;;0.90;;
19599;SDS011;9947;57.722;12.012;2022-09-04T10:07:30;1.03;;;0.93;;
19599;SDS011;9947;57.722;12.012;2022-09-04T10:10:34;1.07;;;1.07;;
19599;SDS011;9947;57.722;12.012;2022-09-04T10:13:23;0.90;;;0.90;;
19599;SDS011;9947;57.722;12.012;2022-09-04T10:16:27;0.90;;;0.90;;
19599;SDS011;9947;57.722;12.012;2022-09-04T10:25:31;0.83;;;0.83;;
19599;SDS011;9947;57.722;12.012;2022-09-04T10:28:18;1.07;;;0.90;;
19599;SDS011;9947;57.722;12.012;2022-09-04T10:33:59;1.00;;;0.90;;
19599;SDS011;9947;57.722;12.012;2022-09-04T10:36:52;1.13;;;0.90;;
19599;SDS011;9947;57.722;12.012;2022-09-04T10:39:32;1.60;;;0.93;;
19599;SDS011;9947;57.722;12.012;2022-09-04T10:42:30;0.80;;;0.80;;
19599;SDS011;9947;57.722;12.012;2022-09-04T10:45:15;0.80;;;0.80;;
19599;SDS011;9947;57.722;12.012;2022-09-04T10:47:52;0.80;;;0.80;;
19599;SDS011;9947;57.722;12.012;2022-09-04T10:50:55;1.27;;;1.00;;
19599;SDS011;9947;57.722;12.012;2022-09-04T10:53:49;0.90;;;0.90;;
19599;SDS011;9947;57.722;12.012;2022-09-04T10:56:44;1.00;;;0.90;;
19599;SDS011;9947;57.722;12.012;2022-09-04T10:59:28;0.80;;;0.80;;
19599;SDS011;9947;57.722;12.012;2022-09-04T11:02:22;0.80;;;0.80;;
19599;SDS011;9947;57.722;12.012;2022-09-04T11:05:15;0.80;;;0.80;;
19599;SDS011;9947;57.722;12.012;2022-09-04T11:10:50;1.77;;;0.90;;
19599;SDS011;9947;57.722;12.012;2022-09-04T11:29:08;0.80;;;0.80;;
19599;SDS011;9947;57.722;12.012;2022-09-04T11:31:53;0.80;;;0.80;;
19599;SDS011;9947;57.722;12.012;2022-09-04T11:34:38;1.17;;;0.80;;
19599;SDS011;9947;57.722;12.012;2022-09-04T11:37:35;0.73;;;0.73;;
19599;SDS011;9947;57.722;12.012;2022-09-04T11:46:54;0.80;;;0.77;;
19599;SDS011;9947;57.722;12.012;2022-09-04T11:49:57;3.03;;;0.90;;
19599;SDS011;9947;57.722;12.012;2022-09-04T11:52:47;1.07;;;0.80;;
19599;SDS011;9947;57.722;12.012;2022-09-04T11:58:44;0.90;;;0.90;;
19599;SDS011;9947;57.722;12.012;2022-09-04T12:04:46;0.90;;;0.90;;
19599;SDS011;9947;57.722;12.012;2022-09-04T12:07:30;0.90;;;0.90;;
19599;SDS011;9947;57.722;12.012;2022-09-04T12:13:17;0.90;;;0.90;;
19599;SDS011;9947;57.722;12.012;2022-09-04T12:16:00;0.70;;;0.70;;
19599;SDS011;9947;57.722;12.012;2022-09-04T12:18:43;0.70;;;0.70;;
19599;SDS011;9947;57.722;12.012;2022-09-04T12:24:46;0.80;;;0.80;;
19599;SDS011;9947;57.722;12.012;2022-09-04T12:27:31;1.37;;;0.70;;
19599;SDS011;9947;57.722;12.012;2022-09-04T12:30:31;1.30;;;0.80;;
19599;SDS011;9947;57.722;12.012;2022-09-04T12:39:38;0.70;;;0.70;;
19599;SDS011;9947;57.722;12.012;2022-09-04T12:42:27;1.13;;;0.63;;
19599;SDS011;9947;57.722;12.012;2022-09-04T12:45:01;2.42;;;1.25;;
19599;SDS011;9947;57.722;12.012;2022-09-04T12:47:42;0.70;;;0.70;;
19599;SDS011;9947;57.722;12.012;2022-09-04T12:50:20;1.05;;;0.80;;
19599;SDS011;9947;57.722;12.012;2022-09-04T12:53:05;0.98;;;0.90;;
19599;SDS011;9947;57.722;12.012;2022-09-04T12:55:51;0.60;;;0.60;;
19599;SDS011;9947;57.722;12.012;2022-09-04T12:58:30;2.83;;;0.75;;
19599;SDS011;9947;57.722;12.012;2022-09-04T13:01:10;0.70;;;0.70;;
19599;SDS011;9947;57.722;12.012;2022-09-04T13:03:47;0.70;;;0.70;;
19599;SDS011;9947;57.722;12.012;2022-09-04T13:06:24;2.30;;;0.80;;
19599;SDS011;9947;57.722;12.012;2022-09-04T13:09:03;0.70;;;0.70;;
19599;SDS011;9947;57.722;12.012;2022-09-04T13:11:42;1.13;;;0.70;;
19599;SDS011;9947;57.722;12.012;2022-09-04T13:14:21;0.70;;;0.70;;
19599;SDS011;9947;57.722;12.012;2022-09-04T13:17:01;1.85;;;0.80;;
19599;SDS011;9947;57.722;12.012;2022-09-04T13:19:38;1.52;;;0.70;;
19599;SDS011;9947;57.722;12.012;2022-09-04T13:22:17;1.38;;;0.73;;
19599;SDS011;9947;57.722;12.012;2022-09-04T13:24:59;0.88;;;0.70;;
19599;SDS011;9947;57.722;12.012;2022-09-04T13:27:38;1.07;;;0.70;;
19599;SDS011;9947;57.722;12.012;2022-09-04T13:30:21;2.10;;;0.80;;
19599;SDS011;9947;57.722;12.012;2022-09-04T13:32:58;0.67;;;0.67;;
19599;SDS011;9947;57.722;12.012;2022-09-04T13:35:57;1.35;;;0.70;;
19599;SDS011;9947;57.722;12.012;2022-09-04T13:38:51;1.40;;;0.83;;
19599;SDS011;9947;57.722;12.012;2022-09-04T13:41:45;0.80;;;0.80;;
19599;SDS011;9947;57.722;12.012;2022-09-04T13:44:33;1.37;;;0.70;;
19599;SDS011;9947;57.722;12.012;2022-09-04T13:47:21;2.50;;;0.80;;
19599;SDS011;9947;57.722;12.012;2022-09-04T13:49:50;0.60;;;0.60;;
19599;SDS011;9947;57.722;12.012;2022-09-04T13:52:23;0.60;;;0.60;;
19599;SDS011;9947;57.722;12.012;2022-09-04T13:54:58;8.83;;;0.97;;
19599;SDS011;9947;57.722;12.012;2022-09-04T13:57:36;0.70;;;0.70;;
19599;SDS011;9947;57.722;12.012;2022-09-04T14:00:13;0.93;;;0.65;;
19599;SDS011;9947;57.722;12.012;2022-09-04T14:02:43;0.70;;;0.70;;
19599;SDS011;9947;57.722;12.012;2022-09-04T14:05:14;0.83;;;0.73;;
19599;SDS011;9947;57.722;12.012;2022-09-04T14:07:45;0.70;;;0.70;;
19599;SDS011;9947;57.722;12.012;2022-09-04T14:10:29;1.60;;;0.80;;
19599;SDS011;9947;57.722;12.012;2022-09-04T14:13:11;1.42;;;0.60;;
19599;SDS011;9947;57.722;12.012;2022-09-04T14:18:45;1.35;;;0.70;;
19599;SDS011;9947;57.722;12.012;2022-09-04T14:21:21;0.70;;;0.70;;
19599;SDS011;9947;57.722;12.012;2022-09-04T14:23:59;3.33;;;0.85;;
19599;SDS011;9947;57.722;12.012;2022-09-04T14:26:32;0.93;;;0.77;;
19599;SDS011;9947;57.722;12.012;2022-09-04T14:29:10;0.98;;;0.70;;
19599;SDS011;9947;57.722;12.012;2022-09-04T14:31:49;0.57;;;0.57;;
19599;SDS011;9947;57.722;12.012;2022-09-04T14:34:33;1.13;;;0.80;;
19599;SDS011;9947;57.722;12.012;2022-09-04T14:37:11;1.00;;;1.00;;
19599;SDS011;9947;57.722;12.012;2022-09-04T14:39:50;1.42;;;0.70;;
19599;SDS011;9947;57.722;12.012;2022-09-04T14:42:25;0.98;;;0.90;;
19599;SDS011;9947;57.722;12.012;2022-09-04T14:45:13;1.85;;;0.95;;
19599;SDS011;9947;57.722;12.012;2022-09-04T14:47:55;2.00;;;0.70;;
19599;SDS011;9947;57.722;12.012;2022-09-04T14:50:27;1.03;;;0.80;;
19599;SDS011;9947;57.722;12.012;2022-09-04T14:52:59;0.88;;;0.88;;
19599;SDS011;9947;57.722;12.012;2022-09-04T14:55:29;1.13;;;1.03;;
19599;SDS011;9947;57.722;12.012;2022-09-04T14:58:00;1.57;;;1.00;;
19599;SDS011;9947;57.722;12.012;2022-09-04T15:00:34;0.87;;;0.87;;
19599;SDS011;9947;57.722;12.012;2022-09-04T15:03:22;0.70;;;0.70;;
19599;SDS011;9947;57.722;12.012;2022-09-04T15:05:54;1.17;;;0.90;;
19599;SDS011;9947;57.722;12.012;2022-09-04T15:08:26;1.57;;;1.40;;
19599;SDS011;9947;57.722;12.012;2022-09-04T15:10:58;6.07;;;1.17;;
19599;SDS011;9947;57.722;12.012;2022-09-04T15:13:35;0.80;;;0.80;;
19599;SDS011;9947;57.722;12.012;2022-09-04T15:16:13;2.47;;;1.30;;
19599;SDS011;9947;57.722;12.012;2022-09-04T15:18:50;1.60;;;1.40;;
19599;SDS011;9947;57.722;12.012;2022-09-04T15:21:24;0.83;;;0.83;;
19599;SDS011;9947;57.722;12.012;2022-09-04T15:24:05;0.93;;;0.93;;
19599;SDS011;9947;57.722;12.012;2022-09-04T15:26:40;0.80;;;0.80;;
19599;SDS011;9947;57.722;12.012;2022-09-04T15:29:12;0.90;;;0.90;;
19599;SDS011;9947;57.722;12.012;2022-09-04T15:31:46;1.40;;;0.90;;
19599;SDS011;9947;57.722;12.012;2022-09-04T15:34:25;0.80;;;0.80;;
19599;SDS011;9947;57.722;12.012;2022-09-04T15:36:53;1.40;;;0.90;;
19599;SDS011;9947;57.722;12.012;2022-09-04T15:39:35;1.17;;;0.93;;
19599;SDS011;9947;57.722;12.012;2022-09-04T15:42:12;1.17;;;1.07;;
19599;SDS011;9947;57.722;12.012;2022-09-04T15:44:59;0.90;;;0.90;;
19599;SDS011;9947;57.722;12.012;2022-09-04T15:47:53;1.43;;;1.10;;
19599;SDS011;9947;57.722;12.012;2022-09-04T15:50:33;1.40;;;1.30;;
19599;SDS011;9947;57.722;12.012;2022-09-04T15:53:11;2.10;;;1.67;;
19599;SDS011;9947;57.722;12.012;2022-09-04T15:55:46;2.07;;;1.73;;
19599;SDS011;9947;57.722;12.012;2022-09-04T15:58:31;1.50;;;1.40;;
19599;SDS011;9947;57.722;12.012;2022-09-04T16:01:07;3.00;;;1.30;;
19599;SDS011;9947;57.722;12.012;2022-09-04T16:03:50;2.30;;;1.03;;
19599;SDS011;9947;57.722;12.012;2022-09-04T16:06:27;1.93;;;1.60;;
19599;SDS011;9947;57.722;12.012;2022-09-04T16:08:57;4.17;;;2.00;;
19599;SDS011;9947;57.722;12.012;2022-09-04T16:11:30;3.30;;;2.00;;
19599;SDS011;9947;57.722;12.012;2022-09-04T16:14:02;3.77;;;1.97;;
19599;SDS011;9947;57.722;12.012;2022-09-04T16:16:37;1.67;;;1.53;;
19599;SDS011;9947;57.722;12.012;2022-09-04T16:19:18;3.17;;;2.03;;
19599;SDS011;9947;57.722;12.012;2022-09-04T16:21:57;3.03;;;1.50;;
19599;SDS011;9947;57.722;12.012;2022-09-04T16:24:31;1.93;;;1.30;;
19599;SDS011;9947;57.722;12.012;2022-09-04T16:27:04;1.47;;;1.37;;
19599;SDS011;9947;57.722;12.012;2022-09-04T16:29:33;2.57;;;1.80;;
19599;SDS011;9947;57.722;12.012;2022-09-04T16:32:04;4.20;;;1.90;;
19599;SDS011;9947;57.722;12.012;2022-09-04T16:34:36;3.43;;;2.17;;
19599;SDS011;9947;57.722;12.012;2022-09-04T16:37:12;2.07;;;1.80;;
19599;SDS011;9947;57.722;12.012;2022-09-04T16:39:45;1.60;;;1.47;;
19599;SDS011;9947;57.722;12.012;2022-09-04T16:42:22;4.80;;;2.53;;
19599;SDS011;9947;57.722;12.012;2022-09-04T16:44:56;4.40;;;2.10;;
19599;SDS011;9947;57.722;12.012;2022-09-04T16:47:30;2.57;;;1.50;;
19599;SDS011;9947;57.722;12.012;2022-09-04T16:50:06;1.43;;;1.30;;
19599;SDS011;9947;57.722;12.012;2022-09-04T16:52:44;2.93;;;1.80;;
19599;SDS011;9947;57.722;12.012;2022-09-04T16:55:22;2.67;;;1.60;;
19599;SDS011;9947;57.722;12.012;2022-09-04T16:57:56;1.93;;;1.60;;
19599;SDS011;9947;57.722;12.012;2022-09-04T17:00:32;2.10;;;1.40;;
19599;SDS011;9947;57.722;12.012;2022-09-04T17:03:19;3.57;;;1.67;;
19599;SDS011;9947;57.722;12.012;2022-09-04T17:05:48;2.73;;;1.43;;
19599;SDS011;9947;57.722;12.012;2022-09-04T17:08:21;1.50;;;1.40;;
19599;SDS011;9947;57.722;12.012;2022-09-04T17:10:56;1.80;;;1.50;;
19599;SDS011;9947;57.722;12.012;2022-09-04T17:13:35;2.10;;;1.60;;
19599;SDS011;9947;57.722;12.012;2022-09-04T17:16:11;3.00;;;1.70;;
19599;SDS011;9947;57.722;12.012;2022-09-04T17:18:43;3.30;;;1.60;;
19599;SDS011;9947;57.722;12.012;2022-09-04T17:21:15;1.53;;;1.37;;
19599;SDS011;9947;57.722;12.012;2022-09-04T17:24:03;2.83;;;1.67;;
19599;SDS011;9947;57.722;12.012;2022-09-04T17:26:35;2.40;;;1.40;;
19599;SDS011;9947;57.722;12.012;2022-09-04T17:29:04;1.40;;;1.30;;
19599;SDS011;9947;57.722;12.012;2022-09-04T17:31:39;1.87;;;1.30;;
19599;SDS011;9947;57.722;12.012;2022-09-04T17:34:16;1.53;;;1.43;;
19599;SDS011;9947;57.722;12.012;2022-09-04T17:36:49;1.60;;;1.50;;
19599;SDS011;9947;57.722;12.012;2022-09-04T17:39:21;2.70;;;1.70;;
19599;SDS011;9947;57.722;12.012;2022-09-04T17:41:53;4.07;;;1.70;;
19599;SDS011;9947;57.722;12.012;2022-09-04T17:44:29;6.50;;;1.60;;
19599;SDS011;9947;57.722;12.012;2022-09-04T17:47:14;3.47;;;1.50;;
19599;SDS011;9947;57.722;12.012;2022-09-04T17:49:51;1.90;;;1.70;;
19599;SDS011;9947;57.722;12.012;2022-09-04T17:52:23;3.80;;;1.80;;
19599;SDS011;9947;57.722;12.012;2022-09-04T17:54:54;1.60;;;1.50;;
19599;SDS011;9947;57.722;12.012;2022-09-04T17:57:26;1.43;;;1.33;;
19599;SDS011;9947;57.722;12.012;2022-09-04T18:00:00;2.83;;;1.30;;
19599;SDS011;9947;57.722;12.012;2022-09-04T18:02:34;4.20;;;1.50;;
19599;SDS011;9947;57.722;12.012;2022-09-04T18:05:11;3.70;;;1.50;;
19599;SDS011;9947;57.722;12.012;2022-09-04T18:07:44;1.50;;;1.40;;
19599;SDS011;9947;57.722;12.012;2022-09-04T18:10:21;1.80;;;1.60;;
19599;SDS011;9947;57.722;12.012;2022-09-04T18:12:57;3.03;;;1.50;;
19599;SDS011;9947;57.722;12.012;2022-09-04T18:15:41;2.03;;;1.33;;
19599;SDS011;9947;57.722;12.012;2022-09-04T18:18:15;1.50;;;1.40;;
19599;SDS011;9947;57.722;12.012;2022-09-04T18:20:44;2.10;;;1.77;;
19599;SDS011;9947;57.722;12.012;2022-09-04T18:23:29;3.87;;;2.10;;
19599;SDS011;9947;57.722;12.012;2022-09-04T18:26:08;4.23;;;1.90;;
19599;SDS011;9947;57.722;12.012;2022-09-04T18:28:41;2.80;;;1.60;;
19599;SDS011;9947;57.722;12.012;2022-09-04T18:31:16;1.87;;;1.77;;
19599;SDS011;9947;57.722;12.012;2022-09-04T18:33:55;2.60;;;1.63;;
19599;SDS011;9947;57.722;12.012;2022-09-04T18:36:39;3.77;;;1.83;;
19599;SDS011;9947;57.722;12.012;2022-09-04T18:39:11;4.40;;;1.67;;
19599;SDS011;9947;57.722;12.012;2022-09-04T18:41:58;1.77;;;1.67;;